sensor_id;sensor_type;location;lat;lon;timestamp;P1;durP1;ratioP1;P2;durP2;ratioP2
3225;SDS011;1625;49.884;8.666;2022-10-16T00:01:18;2.63;;;1.93;;
3225;SDS011;1625;49.884;8.666;2022-10-16T00:03:46;1.97;;;1.87;;
3225;SDS011;1625;49.884;8.666;2022-10-16T00:06:13;2.73;;;2.37;;
3225;SDS011;1625;49.884;8.666;2022-10-16T00:08:40;2.80;;;2.60;;
3225;SDS011;1625;49.884;8.666;2022-10-16T00:11:10;2.77;;;2.43;;
3225;SDS011;1625;49.884;8.666;2022-10-16T00:13:38;2.83;;;2.63;;
3225;SDS011;1625;49.884;8.666;2022-10-16T00:16:05;2.60;;;2.30;;
3225;SDS011;1625;49.884;8.666;2022-10-16T00:18:31;3.13;;;2.50;;
3225;SDS011;1625;49.884;8.666;2022-10-16T00:21:04;3.20;;;2.70;;
3225;SDS011;1625;49.884;8.666;2022-10-16T00:23:34;3.80;;;2.40;;
3225;SDS011;1625;49.884;8.666;2022-10-16T00:26:01;2.30;;;2.10;;
3225;SDS011;1625;49.884;8.666;2022-10-16T00:28:29;4.03;;;2.47;;
3225;SDS011;1625;49.884;8.666;2022-10-16T00:30:55;2.30;;;2.10;;
3225;SDS011;1625;49.884;8.666;2022-10-16T00:33:20;4.07;;;3.00;;
3225;SDS011;1625;49.884;8.666;2022-10-16T00:35:46;2.67;;;2.30;;
3225;SDS011;1625;49.884;8.666;2022-10-16T00:38:12;3.63;;;2.60;;
3225;SDS011;1625;49.884;8.666;2022-10-16T00:40:38;2.23;;;1.80;;
3225;SDS011;1625;49.884;8.666;2022-10-16T00:43:09;5.60;;;2.67;;
3225;SDS011;1625;49.884;8.666;2022-10-16T00:45:39;2.00;;;1.90;;
3225;SDS011;1625;49.884;8.666;2022-10-16T00:48:06;2.30;;;2.10;;
3225;SDS011;1625;49.884;8.666;2022-10-16T00:50:37;1.93;;;1.70;;
3225;SDS011;1625;49.884;8.666;2022-10-16T00:53:03;2.17;;;1.70;;
3225;SDS011;1625;49.884;8.666;2022-10-16T00:55:29;1.80;;;1.70;;
3225;SDS011;1625;49.884;8.666;2022-10-16T00:57:55;1.67;;;1.57;;
3225;SDS011;1625;49.884;8.666;2022-10-16T01:00:24;2.20;;;2.00;;
3225;SDS011;1625;49.884;8.666;2022-10-16T01:02:55;3.53;;;1.70;;
3225;SDS011;1625;49.884;8.666;2022-10-16T01:05:23;2.40;;;1.50;;
3225;SDS011;1625;49.884;8.666;2022-10-16T01:07:59;3.53;;;1.73;;
3225;SDS011;1625;49.884;8.666;2022-10-16T01:10:43;2.57;;;1.40;;
3225;SDS011;1625;49.884;8.666;2022-10-16T01:13:27;2.30;;;1.30;;
3225;SDS011;1625;49.884;8.666;2022-10-16T01:16:06;1.90;;;1.47;;
3225;SDS011;1625;49.884;8.666;2022-10-16T01:21:12;1.40;;;1.30;;
3225;SDS011;1625;49.884;8.666;2022-10-16T01:29:25;1.83;;;1.17;;
3225;SDS011;1625;49.884;8.666;2022-10-16T01:31:59;2.20;;;2.00;;
3225;SDS011;1625;49.884;8.666;2022-10-16T01:34:30;1.80;;;1.70;;
3225;SDS011;1625;49.884;8.666;2022-10-16T01:37:08;2.83;;;1.40;;
3225;SDS011;1625;49.884;8.666;2022-10-16T01:39:37;2.73;;;1.30;;
3225;SDS011;1625;49.884;8.666;2022-10-16T01:42:08;2.03;;;1.43;;
3225;SDS011;1625;49.884;8.666;2022-10-16T01:44:37;1.60;;;1.33;;
3225;SDS011;1625;49.884;8.666;2022-10-16T01:47:05;1.50;;;1.37;;
3225;SDS011;1625;49.884;8.666;2022-10-16T01:49:35;1.60;;;1.50;;
3225;SDS011;1625;49.884;8.666;2022-10-16T01:52:05;1.70;;;1.60;;
3225;SDS011;1625;49.884;8.666;2022-10-16T01:54:34;1.40;;;1.30;;
3225;SDS011;1625;49.884;8.666;2022-10-16T01:57:02;1.77;;;1.67;;
3225;SDS011;1625;49.884;8.666;2022-10-16T01:59:31;2.23;;;1.50;;
3225;SDS011;1625;49.884;8.666;2022-10-16T02:02:05;1.67;;;1.57;;
3225;SDS011;1625;49.884;8.666;2022-10-16T02:04:34;2.03;;;1.93;;
3225;SDS011;1625;49.884;8.666;2022-10-16T02:07:08;1.93;;;1.83;;
3225;SDS011;1625;49.884;8.666;2022-10-16T02:09:35;2.40;;;1.83;;
3225;SDS011;1625;49.884;8.666;2022-10-16T02:12:03;1.73;;;1.63;;
3225;SDS011;1625;49.884;8.666;2022-10-16T02:14:35;2.40;;;2.00;;
3225;SDS011;1625;49.884;8.666;2022-10-16T02:17:14;2.20;;;2.00;;
3225;SDS011;1625;49.884;8.666;2022-10-16T02:19:41;2.00;;;1.90;;
3225;SDS011;1625;49.884;8.666;2022-10-16T02:22:09;1.90;;;1.70;;
3225;SDS011;1625;49.884;8.666;2022-10-16T02:24:43;4.83;;;2.17;;
3225;SDS011;1625;49.884;8.666;2022-10-16T02:29:52;2.30;;;2.10;;
3225;SDS011;1625;49.884;8.666;2022-10-16T02:32:24;3.10;;;2.00;;
3225;SDS011;1625;49.884;8.666;2022-10-16T02:34:55;2.10;;;1.90;;
3225;SDS011;1625;49.884;8.666;2022-10-16T02:37:22;3.37;;;2.60;;
3225;SDS011;1625;49.884;8.666;2022-10-16T02:39:49;2.60;;;2.40;;
3225;SDS011;1625;49.884;8.666;2022-10-16T02:42:15;3.10;;;2.30;;
3225;SDS011;1625;49.884;8.666;2022-10-16T02:44:42;2.70;;;2.50;;
3225;SDS011;1625;49.884;8.666;2022-10-16T02:47:07;2.60;;;2.40;;
3225;SDS011;1625;49.884;8.666;2022-10-16T02:49:33;3.70;;;2.77;;
3225;SDS011;1625;49.884;8.666;2022-10-16T02:51:58;3.10;;;2.80;;
3225;SDS011;1625;49.884;8.666;2022-10-16T02:54:24;3.33;;;3.00;;
3225;SDS011;1625;49.884;8.666;2022-10-16T02:56:49;3.00;;;2.80;;
3225;SDS011;1625;49.884;8.666;2022-10-16T02:59:15;3.40;;;3.10;;
3225;SDS011;1625;49.884;8.666;2022-10-16T03:01:41;4.20;;;3.70;;
3225;SDS011;1625;49.884;8.666;2022-10-16T03:04:07;4.60;;;3.90;;
3225;SDS011;1625;49.884;8.666;2022-10-16T03:06:32;3.97;;;3.57;;
3225;SDS011;1625;49.884;8.666;2022-10-16T03:08:58;4.00;;;3.70;;
3225;SDS011;1625;49.884;8.666;2022-10-16T03:11:24;5.13;;;3.70;;
3225;SDS011;1625;49.884;8.666;2022-10-16T03:13:49;4.07;;;3.77;;
3225;SDS011;1625;49.884;8.666;2022-10-16T03:16:15;4.97;;;4.57;;
3225;SDS011;1625;49.884;8.666;2022-10-16T03:18:40;4.60;;;3.93;;
3225;SDS011;1625;49.884;8.666;2022-10-16T03:21:06;5.73;;;4.47;;
3225;SDS011;1625;49.884;8.666;2022-10-16T03:23:32;4.03;;;3.70;;
3225;SDS011;1625;49.884;8.666;2022-10-16T03:25:57;4.20;;;3.47;;
3225;SDS011;1625;49.884;8.666;2022-10-16T03:28:23;4.47;;;3.50;;
3225;SDS011;1625;49.884;8.666;2022-10-16T03:30:48;4.90;;;4.50;;
3225;SDS011;1625;49.884;8.666;2022-10-16T03:33:14;4.00;;;3.70;;
3225;SDS011;1625;49.884;8.666;2022-10-16T03:35:39;4.13;;;3.30;;
3225;SDS011;1625;49.884;8.666;2022-10-16T03:38:05;4.80;;;4.30;;
3225;SDS011;1625;49.884;8.666;2022-10-16T03:40:30;4.50;;;3.77;;
3225;SDS011;1625;49.884;8.666;2022-10-16T03:42:57;4.47;;;4.03;;
3225;SDS011;1625;49.884;8.666;2022-10-16T03:45:23;4.73;;;4.33;;
3225;SDS011;1625;49.884;8.666;2022-10-16T03:47:49;4.83;;;4.37;;
3225;SDS011;1625;49.884;8.666;2022-10-16T03:50:14;5.30;;;4.80;;
3225;SDS011;1625;49.884;8.666;2022-10-16T03:52:40;4.70;;;4.30;;
3225;SDS011;1625;49.884;8.666;2022-10-16T03:55:06;5.00;;;4.50;;
3225;SDS011;1625;49.884;8.666;2022-10-16T03:57:32;4.27;;;3.97;;
3225;SDS011;1625;49.884;8.666;2022-10-16T03:59:58;4.60;;;4.20;;
3225;SDS011;1625;49.884;8.666;2022-10-16T04:02:23;6.00;;;4.10;;
3225;SDS011;1625;49.884;8.666;2022-10-16T04:04:49;4.50;;;4.20;;
3225;SDS011;1625;49.884;8.666;2022-10-16T04:07:14;4.70;;;4.30;;
3225;SDS011;1625;49.884;8.666;2022-10-16T04:09:40;5.70;;;4.83;;
3225;SDS011;1625;49.884;8.666;2022-10-16T04:12:05;4.73;;;4.30;;
3225;SDS011;1625;49.884;8.666;2022-10-16T04:14:31;5.40;;;4.40;;
3225;SDS011;1625;49.884;8.666;2022-10-16T04:16:56;4.90;;;4.40;;
3225;SDS011;1625;49.884;8.666;2022-10-16T04:19:22;4.90;;;4.50;;
3225;SDS011;1625;49.884;8.666;2022-10-16T04:21:47;4.63;;;4.20;;
3225;SDS011;1625;49.884;8.666;2022-10-16T04:24:13;5.03;;;4.47;;
3225;SDS011;1625;49.884;8.666;2022-10-16T04:26:38;7.10;;;4.17;;
3225;SDS011;1625;49.884;8.666;2022-10-16T04:29:04;4.60;;;4.07;;
3225;SDS011;1625;49.884;8.666;2022-10-16T04:31:29;4.47;;;4.07;;
3225;SDS011;1625;49.884;8.666;2022-10-16T06:22:29;7.10;;;4.53;;
3225;SDS011;1625;49.884;8.666;2022-10-16T06:24:55;6.43;;;4.47;;
3225;SDS011;1625;49.884;8.666;2022-10-16T06:27:21;3.73;;;3.43;;
3225;SDS011;1625;49.884;8.666;2022-10-16T06:29:47;8.27;;;4.47;;
3225;SDS011;1625;49.884;8.666;2022-10-16T06:32:13;3.83;;;3.30;;
3225;SDS011;1625;49.884;8.666;2022-10-16T06:34:39;4.77;;;4.20;;
3225;SDS011;1625;49.884;8.666;2022-10-16T06:37:06;3.57;;;3.37;;
3225;SDS011;1625;49.884;8.666;2022-10-16T06:39:32;5.10;;;3.93;;
3225;SDS011;1625;49.884;8.666;2022-10-16T06:42:41;4.00;;;3.60;;
3225;SDS011;1625;49.884;8.666;2022-10-16T06:45:07;4.20;;;3.47;;
3225;SDS011;1625;49.884;8.666;2022-10-16T06:47:33;3.27;;;3.07;;
3225;SDS011;1625;49.884;8.666;2022-10-16T06:49:59;4.40;;;3.53;;
3225;SDS011;1625;49.884;8.666;2022-10-16T06:52:27;4.53;;;4.13;;
3225;SDS011;1625;49.884;8.666;2022-10-16T06:54:53;4.67;;;3.50;;
3225;SDS011;1625;49.884;8.666;2022-10-16T06:57:19;3.80;;;3.30;;
3225;SDS011;1625;49.884;8.666;2022-10-16T06:59:57;8.60;;;3.33;;
3225;SDS011;1625;49.884;8.666;2022-10-16T07:02:23;3.50;;;3.03;;
3225;SDS011;1625;49.884;8.666;2022-10-16T07:04:49;5.80;;;3.70;;
3225;SDS011;1625;49.884;8.666;2022-10-16T07:07:15;3.27;;;2.97;;
3225;SDS011;1625;49.884;8.666;2022-10-16T07:09:41;3.10;;;2.80;;
3225;SDS011;1625;49.884;8.666;2022-10-16T07:12:07;3.50;;;3.20;;
3225;SDS011;1625;49.884;8.666;2022-10-16T07:22:19;5.53;;;3.20;;
3225;SDS011;1625;49.884;8.666;2022-10-16T07:25:14;4.10;;;3.37;;
3225;SDS011;1625;49.884;8.666;2022-10-16T07:27:40;4.07;;;3.67;;
3225;SDS011;1625;49.884;8.666;2022-10-16T07:30:06;3.43;;;3.13;;
3225;SDS011;1625;49.884;8.666;2022-10-16T07:32:32;3.80;;;3.13;;
3225;SDS011;1625;49.884;8.666;2022-10-16T07:34:59;3.53;;;3.23;;
3225;SDS011;1625;49.884;8.666;2022-10-16T07:37:25;4.43;;;3.23;;
3225;SDS011;1625;49.884;8.666;2022-10-16T07:39:51;3.57;;;3.23;;
3225;SDS011;1625;49.884;8.666;2022-10-16T07:42:20;5.80;;;3.30;;
3225;SDS011;1625;49.884;8.666;2022-10-16T07:55:51;3.30;;;2.93;;
3225;SDS011;1625;49.884;8.666;2022-10-16T08:09:37;4.63;;;3.43;;
3225;SDS011;1625;49.884;8.666;2022-10-16T08:12:03;3.20;;;3.00;;
3225;SDS011;1625;49.884;8.666;2022-10-16T08:14:50;3.43;;;3.13;;
3225;SDS011;1625;49.884;8.666;2022-10-16T08:18:24;3.77;;;3.00;;
3225;SDS011;1625;49.884;8.666;2022-10-16T08:22:15;2.83;;;2.53;;
3225;SDS011;1625;49.884;8.666;2022-10-16T14:31:55;4.80;;;4.40;;
3225;SDS011;1625;49.884;8.666;2022-10-16T14:36:59;5.00;;;4.60;;
3225;SDS011;1625;49.884;8.666;2022-10-16T14:39:33;6.03;;;4.10;;
3225;SDS011;1625;49.884;8.666;2022-10-16T14:42:00;5.00;;;4.43;;
3225;SDS011;1625;49.884;8.666;2022-10-16T14:44:27;4.83;;;4.40;;
3225;SDS011;1625;49.884;8.666;2022-10-16T14:46:56;5.50;;;3.80;;
3225;SDS011;1625;49.884;8.666;2022-10-16T14:49:22;4.90;;;4.40;;
3225;SDS011;1625;49.884;8.666;2022-10-16T14:51:49;4.70;;;4.20;;
3225;SDS011;1625;49.884;8.666;2022-10-16T14:54:15;4.50;;;4.20;;
3225;SDS011;1625;49.884;8.666;2022-10-16T14:56:47;4.67;;;4.27;;
3225;SDS011;1625;49.884;8.666;2022-10-16T14:59:39;5.57;;;4.90;;
3225;SDS011;1625;49.884;8.666;2022-10-16T15:04:43;5.37;;;4.80;;
3225;SDS011;1625;49.884;8.666;2022-10-16T15:07:17;5.50;;;4.23;;
3225;SDS011;1625;49.884;8.666;2022-10-16T16:26:53;7.60;;;6.90;;
3225;SDS011;1625;49.884;8.666;2022-10-16T16:30:34;7.17;;;6.57;;
3225;SDS011;1625;49.884;8.666;2022-10-16T16:34:04;19.00;;;17.13;;
3225;SDS011;1625;49.884;8.666;2022-10-16T16:37:38;9.67;;;7.60;;
3225;SDS011;1625;49.884;8.666;2022-10-16T17:34:10;4.53;;;4.13;;
3225;SDS011;1625;49.884;8.666;2022-10-16T17:45:04;6.47;;;4.33;;
